createdAt,value
2022-08-01T00:02:01.607Z,2.80
2022-08-01T00:04:30.558Z,2.60
2022-08-01T00:07:00.600Z,3.00
2022-08-01T00:09:29.183Z,2.60
2022-08-01T00:12:00.048Z,3.00
2022-08-01T00:14:32.319Z,2.80
2022-08-01T00:17:07.015Z,2.80
2022-08-01T00:19:36.167Z,2.40
2022-08-01T00:22:04.861Z,3.00
2022-08-01T00:24:33.603Z,2.80
2022-08-01T00:27:02.131Z,2.70
2022-08-01T00:30:09.702Z,2.90
2022-08-01T00:32:19.419Z,2.90
2022-08-01T00:34:47.893Z,2.70
2022-08-01T00:37:20.625Z,2.60
2022-08-01T00:39:49.080Z,2.80
2022-08-01T00:42:17.525Z,2.50
2022-08-01T00:44:47.503Z,2.50
2022-08-01T00:47:15.957Z,3.00
2022-08-01T00:49:44.434Z,2.70
2022-08-01T00:52:13.161Z,3.00
2022-08-01T00:54:41.899Z,2.70
2022-08-01T00:57:10.963Z,2.90
2022-08-01T00:59:41.509Z,3.00
2022-08-01T01:02:15.653Z,3.20
2022-08-01T01:04:44.529Z,3.20
2022-08-01T01:07:22.451Z,2.90
2022-08-01T01:09:58.179Z,3.00
2022-08-01T01:12:37.271Z,3.10
2022-08-01T01:15:10.982Z,2.70
2022-08-01T01:17:51.282Z,3.20
2022-08-01T01:20:24.949Z,2.50
2022-08-01T01:23:21.620Z,2.70
2022-08-01T01:26:09.662Z,3.30
2022-08-01T01:29:01.246Z,2.80
2022-08-01T01:31:33.407Z,2.80
2022-08-01T01:34:05.300Z,3.40
2022-08-01T01:36:34.905Z,2.50
2022-08-01T01:39:03.639Z,2.60
2022-08-01T01:41:32.747Z,3.30
2022-08-01T01:44:02.794Z,3.00
2022-08-01T01:46:32.246Z,2.60
2022-08-01T01:49:02.449Z,3.20
2022-08-01T01:51:32.584Z,2.80
2022-08-01T01:54:02.773Z,3.00
2022-08-01T01:56:33.908Z,3.30
2022-08-01T01:59:04.999Z,3.20
2022-08-01T02:02:08.637Z,3.10
2022-08-01T02:04:27.712Z,3.00
2022-08-01T02:06:58.453Z,2.90
2022-08-01T02:09:29.279Z,2.90
2022-08-01T02:12:08.765Z,3.10
2022-08-01T02:14:38.256Z,2.50
2022-08-01T02:17:06.990Z,2.50
2022-08-01T02:19:38.272Z,3.10
2022-08-01T02:22:11.961Z,2.80
2022-08-01T02:24:46.024Z,3.10
2022-08-01T02:27:22.410Z,3.10
2022-08-01T02:29:58.820Z,2.60
2022-08-01T02:32:36.606Z,3.10
2022-08-01T02:35:12.533Z,2.50
2022-08-01T02:37:45.042Z,3.20
2022-08-01T02:40:18.093Z,3.30
2022-08-01T02:42:53.625Z,3.20
2022-08-01T02:45:25.890Z,2.50
2022-08-01T02:47:58.649Z,2.80
2022-08-01T02:50:29.521Z,2.70
2022-08-01T02:52:59.705Z,3.10
2022-08-01T02:55:30.084Z,3.20
2022-08-01T02:58:00.961Z,3.00
2022-08-01T03:00:31.173Z,2.70
2022-08-01T03:03:02.263Z,3.00
2022-08-01T03:05:32.782Z,2.90
2022-08-01T03:08:03.898Z,2.50
2022-08-01T03:10:33.668Z,3.20
2022-08-01T03:13:04.042Z,3.10
2022-08-01T03:15:36.713Z,3.10
2022-08-01T03:18:08.176Z,3.10
2022-08-01T03:20:37.001Z,2.90
2022-08-01T03:23:09.583Z,3.00
2022-08-01T03:25:40.917Z,4.30
2022-08-01T03:28:13.678Z,3.80
2022-08-01T03:30:43.529Z,4.10
2022-08-01T03:33:14.722Z,3.00
2022-08-01T03:35:49.638Z,2.90
2022-08-01T03:38:22.386Z,2.80
2022-08-01T03:40:54.759Z,3.10
2022-08-01T03:43:32.188Z,3.90
2022-08-01T03:46:08.049Z,3.30
2022-08-01T03:48:40.826Z,2.80
2022-08-01T03:51:11.424Z,2.90
2022-08-01T03:53:42.536Z,3.20
2022-08-01T03:56:13.683Z,4.00
2022-08-01T03:58:44.542Z,3.70
2022-08-01T04:01:19.402Z,3.20
2022-08-01T04:03:50.632Z,3.40
2022-08-01T04:06:20.956Z,3.20
2022-08-01T04:08:56.191Z,3.30
2022-08-01T04:11:27.668Z,3.50
2022-08-01T04:13:58.114Z,3.10
2022-08-01T04:16:27.515Z,3.40
2022-08-01T04:18:56.448Z,3.90
2022-08-01T04:21:28.988Z,3.60
2022-08-01T04:24:03.921Z,3.50
2022-08-01T04:26:35.626Z,3.40
2022-08-01T04:29:06.017Z,3.70
2022-08-01T04:31:35.967Z,3.10
2022-08-01T04:34:07.041Z,3.40
2022-08-01T04:36:37.791Z,3.90
2022-08-01T04:39:07.098Z,3.80
2022-08-01T04:41:37.500Z,4.00
2022-08-01T04:44:07.242Z,4.30
2022-08-01T04:46:38.164Z,7.70
2022-08-01T04:49:09.433Z,3.70
2022-08-01T04:51:51.500Z,4.00
2022-08-01T04:54:21.837Z,3.80
2022-08-01T04:56:51.691Z,4.30
2022-08-01T04:59:39.726Z,3.60
2022-08-01T05:02:08.838Z,4.00
2022-08-01T05:04:38.219Z,3.70
2022-08-01T05:07:06.737Z,3.90
2022-08-01T05:09:36.810Z,4.00
2022-08-01T05:12:07.638Z,3.90
2022-08-01T05:14:36.709Z,4.00
2022-08-01T05:17:06.895Z,3.80
2022-08-01T05:19:36.231Z,4.30
2022-08-01T05:22:06.204Z,4.10
2022-08-01T05:24:37.339Z,4.30
2022-08-01T05:27:09.189Z,4.70
2022-08-01T05:29:44.348Z,4.20
2022-08-01T05:32:13.460Z,4.10
2022-08-01T05:34:41.849Z,3.90
2022-08-01T05:37:10.570Z,4.70
2022-08-01T05:39:39.040Z,3.70
2022-08-01T05:42:07.969Z,3.60
2022-08-01T05:44:36.732Z,3.30
2022-08-01T05:47:05.449Z,3.00
2022-08-01T05:49:33.894Z,3.30
2022-08-01T05:52:03.081Z,3.10
2022-08-01T05:54:32.196Z,3.00
2022-08-01T05:57:02.030Z,3.40
2022-08-01T05:59:30.975Z,2.80
2022-08-01T06:01:59.543Z,3.10
2022-08-01T06:04:28.132Z,2.80
2022-08-01T06:06:56.503Z,2.50
2022-08-01T06:09:24.906Z,2.70
2022-08-01T06:11:53.343Z,2.80
2022-08-01T06:14:21.764Z,2.30
2022-08-01T06:16:50.140Z,2.10
2022-08-01T06:19:19.427Z,2.60
2022-08-01T06:21:47.891Z,2.80
2022-08-01T06:24:16.371Z,2.20
2022-08-01T06:26:44.823Z,2.30
2022-08-01T06:29:13.930Z,2.10
2022-08-01T06:31:42.630Z,2.30
2022-08-01T06:34:11.014Z,2.30
2022-08-01T06:36:39.711Z,2.20
2022-08-01T06:39:08.329Z,2.10
2022-08-01T06:41:36.967Z,2.10
2022-08-01T06:44:06.449Z,2.20
2022-08-01T06:46:35.188Z,2.10
2022-08-01T06:49:05.212Z,2.30
2022-08-01T06:51:33.936Z,2.10
2022-08-01T06:54:02.487Z,2.00
2022-08-01T06:56:31.140Z,2.00
2022-08-01T06:59:01.326Z,2.40
2022-08-01T07:01:31.043Z,2.50
2022-08-01T07:04:04.929Z,2.50
2022-08-01T07:06:34.741Z,2.80
2022-08-01T07:09:08.433Z,2.30
2022-08-01T07:11:40.799Z,2.20
2022-08-01T07:14:09.551Z,2.30
2022-08-01T07:16:38.144Z,1.70
2022-08-01T07:19:06.787Z,1.80
2022-08-01T07:21:39.754Z,2.50
2022-08-01T07:24:14.418Z,2.20
2022-08-01T07:26:52.679Z,2.70
2022-08-01T07:29:24.612Z,2.50
2022-08-01T07:31:54.316Z,2.20
2022-08-01T07:34:24.103Z,1.90
2022-08-01T07:36:53.718Z,1.70
2022-08-01T07:39:22.553Z,1.70
2022-08-01T07:42:13.370Z,2.00
2022-08-01T07:44:39.958Z,1.90
2022-08-01T07:47:08.616Z,2.40
2022-08-01T07:49:40.240Z,2.20
2022-08-01T07:52:10.526Z,2.20
2022-08-01T07:54:39.365Z,1.90
2022-08-01T07:57:08.763Z,1.90
2022-08-01T07:59:37.463Z,1.40
2022-08-01T08:02:06.738Z,1.60
2022-08-01T08:04:35.924Z,1.90
2022-08-01T08:07:04.818Z,1.50
2022-08-01T08:09:37.332Z,1.70
2022-08-01T08:12:08.461Z,1.90
2022-08-01T08:14:38.040Z,1.50
2022-08-01T08:17:07.170Z,1.70
2022-08-01T08:19:39.209Z,1.50
2022-08-01T08:22:10.277Z,1.90
2022-08-01T08:24:46.533Z,1.50
2022-08-01T08:27:16.078Z,1.60
2022-08-01T08:29:45.193Z,1.70
2022-08-01T08:32:13.911Z,1.60
2022-08-01T08:34:43.081Z,1.40
2022-08-01T08:37:12.035Z,1.80
2022-08-01T08:39:42.472Z,1.90
2022-08-01T08:42:12.161Z,1.70
2022-08-01T08:44:43.327Z,1.50
2022-08-01T08:47:19.608Z,1.90
2022-08-01T08:49:51.065Z,1.40
2022-08-01T08:52:21.709Z,1.90
2022-08-01T08:54:52.406Z,1.50
2022-08-01T08:57:22.962Z,1.80
2022-08-01T08:59:53.183Z,1.70
2022-08-01T09:02:22.403Z,1.50
2022-08-01T09:04:51.705Z,1.90
2022-08-01T09:07:20.320Z,1.80
2022-08-01T09:09:49.680Z,1.70
2022-08-01T09:12:22.508Z,1.60
2022-08-01T09:14:53.827Z,1.80
2022-08-01T09:17:22.699Z,2.40
2022-08-01T09:19:54.454Z,1.70
2022-08-01T09:22:25.634Z,1.50
2022-08-01T09:25:02.852Z,1.70
2022-08-01T09:27:31.872Z,1.80
2022-08-01T09:30:11.543Z,2.10
2022-08-01T09:32:55.757Z,1.60
2022-08-01T09:35:31.821Z,1.70
2022-08-01T09:38:20.345Z,1.40
2022-08-01T09:40:51.290Z,1.80
2022-08-01T09:43:22.359Z,1.70
2022-08-01T09:45:53.410Z,1.40
2022-08-01T09:48:28.512Z,1.50
2022-08-01T09:51:03.968Z,1.90
2022-08-01T09:53:52.522Z,1.70
2022-08-01T09:56:25.802Z,1.60
2022-08-01T09:59:00.356Z,1.80
2022-08-01T10:01:43.436Z,1.50
2022-08-01T10:04:13.697Z,1.50
2022-08-01T10:06:46.106Z,1.50
2022-08-01T10:09:15.477Z,1.80
2022-08-01T10:11:45.555Z,1.70
2022-08-01T10:14:18.198Z,2.00
2022-08-01T10:16:53.638Z,1.50
2022-08-01T10:19:28.885Z,1.80
2022-08-01T10:22:00.189Z,1.70
2022-08-01T10:24:31.190Z,1.60
2022-08-01T10:27:12.655Z,1.40
2022-08-01T10:30:05.648Z,1.80
2022-08-01T10:32:39.740Z,2.20
2022-08-01T10:35:15.716Z,1.60
2022-08-01T10:37:52.151Z,1.70
2022-08-01T10:40:31.080Z,1.60
2022-08-01T10:43:01.188Z,1.80
2022-08-01T10:45:30.352Z,1.50
2022-08-01T10:48:06.876Z,1.70
2022-08-01T10:50:38.672Z,1.50
2022-08-01T10:53:23.292Z,1.80
2022-08-01T10:56:03.932Z,1.40
2022-08-01T10:58:42.760Z,1.90
2022-08-01T11:01:21.811Z,1.70
2022-08-01T11:04:13.922Z,1.50
2022-08-01T11:07:05.973Z,1.60
2022-08-01T11:09:42.676Z,1.70
2022-08-01T11:12:23.485Z,1.90
2022-08-01T11:15:31.024Z,1.80
2022-08-01T11:18:27.404Z,1.70
2022-08-01T11:21:57.764Z,1.30
2022-08-01T11:23:53.135Z,1.60
2022-08-01T11:26:29.793Z,1.80
2022-08-01T11:29:21.581Z,1.70
2022-08-01T11:31:52.984Z,1.80
2022-08-01T11:34:54.637Z,1.70
2022-08-01T11:37:30.449Z,2.10
2022-08-01T11:40:20.181Z,2.10
2022-08-01T11:43:12.175Z,1.50
2022-08-01T11:45:53.181Z,1.80
2022-08-01T11:48:27.557Z,1.90
2022-08-01T11:51:02.203Z,2.00
2022-08-01T11:53:33.755Z,2.00
2022-08-01T11:56:02.623Z,1.80
2022-08-01T11:58:31.509Z,2.00
2022-08-01T12:01:00.531Z,2.00
2022-08-01T12:03:33.564Z,2.20
2022-08-01T12:06:02.926Z,1.60
2022-08-01T12:08:34.884Z,2.00
2022-08-01T12:11:06.707Z,1.80
2022-08-01T12:13:43.478Z,1.80
2022-08-01T12:16:12.645Z,1.80
2022-08-01T12:18:42.667Z,2.00
2022-08-01T12:21:11.867Z,1.90
2022-08-01T12:23:40.435Z,2.20
2022-08-01T12:26:28.399Z,1.90
2022-08-01T12:28:58.576Z,2.30
2022-08-01T12:31:34.493Z,2.00
2022-08-01T12:34:28.410Z,1.80
2022-08-01T12:36:59.557Z,2.10
2022-08-01T12:39:34.281Z,1.80
2022-08-01T12:44:31.982Z,2.50
2022-08-01T12:47:01.548Z,2.00
2022-08-01T12:49:30.616Z,2.50
2022-08-01T12:51:59.552Z,2.40
2022-08-01T12:54:28.966Z,2.00
2022-08-01T12:57:00.119Z,1.70
2022-08-01T12:59:29.990Z,2.30
2022-08-01T13:02:09.493Z,2.30
2022-08-01T13:04:52.339Z,1.80
2022-08-01T13:07:21.090Z,2.30
2022-08-01T13:09:52.658Z,2.00
2022-08-01T13:12:21.371Z,2.00
2022-08-01T13:14:50.084Z,2.20
2022-08-01T13:17:32.860Z,2.40
2022-08-01T13:20:01.635Z,2.60
2022-08-01T13:22:37.185Z,2.70
2022-08-01T13:25:16.795Z,2.70
2022-08-01T13:27:53.931Z,2.80
2022-08-01T13:30:37.410Z,2.80
2022-08-01T13:33:06.081Z,3.00
2022-08-01T13:35:34.854Z,3.00
2022-08-01T13:38:03.972Z,3.20
2022-08-01T13:40:32.940Z,3.20
2022-08-01T13:43:01.419Z,3.40
2022-08-01T13:45:30.603Z,2.90
2022-08-01T13:48:03.836Z,3.40
2022-08-01T13:50:41.727Z,3.50
2022-08-01T13:53:10.359Z,3.60
2022-08-01T13:55:39.753Z,3.10
2022-08-01T13:58:08.283Z,3.40
2022-08-01T14:00:37.532Z,2.90
2022-08-01T14:03:06.583Z,3.10
2022-08-01T14:05:36.047Z,3.10
2022-08-01T14:08:06.532Z,3.30
2022-08-01T14:10:36.214Z,3.10
2022-08-01T14:13:04.826Z,3.20
2022-08-01T14:15:37.311Z,3.00
2022-08-01T14:18:11.628Z,3.10
2022-08-01T14:20:40.834Z,3.10
2022-08-01T14:23:10.369Z,2.70
2022-08-01T14:26:02.865Z,2.50
2022-08-01T14:28:30.700Z,2.80
2022-08-01T14:31:00.108Z,2.50
2022-08-01T14:33:29.444Z,2.70
2022-08-01T14:36:06.087Z,2.60
2022-08-01T14:38:46.851Z,3.00
2022-08-01T14:41:16.187Z,3.00
2022-08-01T14:43:45.666Z,3.00
2022-08-01T14:46:14.486Z,3.00
2022-08-01T14:48:43.341Z,2.90
2022-08-01T14:51:12.772Z,2.60
2022-08-01T14:53:46.566Z,2.90
2022-08-01T14:56:15.829Z,2.90
2022-08-01T14:58:44.718Z,3.10
2022-08-01T15:01:13.685Z,4.00
2022-08-01T15:03:42.584Z,3.30
2022-08-01T15:06:13.045Z,2.90
2022-08-01T15:08:41.975Z,3.20
2022-08-01T15:11:11.440Z,3.70
2022-08-01T15:13:42.600Z,3.40
2022-08-01T15:16:12.164Z,3.40
2022-08-01T15:18:42.484Z,3.30
2022-08-01T15:21:29.398Z,3.00
2022-08-01T15:24:07.186Z,3.20
2022-08-01T15:26:36.139Z,4.50
2022-08-01T15:29:05.126Z,3.30
2022-08-01T15:31:34.036Z,3.20
2022-08-01T15:34:02.922Z,2.90
2022-08-01T15:36:35.421Z,3.00
2022-08-01T15:39:04.694Z,2.40
2022-08-01T15:41:33.582Z,2.70
2022-08-01T15:44:02.626Z,2.40
2022-08-01T15:46:31.538Z,2.40
2022-08-01T15:49:04.163Z,2.60
2022-08-01T15:51:34.030Z,2.20
2022-08-01T15:54:03.350Z,2.40
2022-08-01T15:56:33.547Z,2.60
2022-08-01T15:59:05.898Z,2.60
2022-08-01T16:01:34.814Z,2.60
2022-08-01T16:04:04.225Z,2.40
2022-08-01T16:06:33.394Z,2.60
2022-08-01T16:09:02.673Z,2.60
2022-08-01T16:11:31.609Z,2.90
2022-08-01T16:14:00.758Z,4.30
2022-08-01T16:16:29.735Z,5.30
2022-08-01T16:18:58.413Z,4.20
2022-08-01T16:21:27.255Z,2.70
2022-08-01T16:23:55.833Z,2.50
2022-08-01T16:26:27.949Z,2.70
2022-08-01T16:28:58.133Z,2.80
2022-08-01T16:31:38.205Z,2.40
2022-08-01T16:34:22.947Z,2.60
2022-08-01T16:36:52.801Z,2.30
2022-08-01T16:39:23.580Z,2.90
2022-08-01T16:41:55.171Z,3.20
2022-08-01T16:44:33.379Z,4.20
2022-08-01T16:47:04.249Z,3.70
2022-08-01T16:49:33.429Z,3.90
2022-08-01T16:52:02.303Z,2.90
2022-08-01T16:54:31.605Z,3.20
2022-08-01T16:57:08.432Z,5.80
2022-08-01T16:59:40.868Z,4.90
2022-08-01T17:02:11.626Z,3.20
2022-08-01T17:04:40.249Z,3.20
2022-08-01T17:07:09.176Z,2.60
2022-08-01T17:09:43.021Z,2.70
2022-08-01T17:12:12.638Z,2.60
2022-08-01T17:14:43.050Z,2.90
2022-08-01T17:17:20.564Z,2.60
2022-08-01T17:19:49.946Z,2.90
2022-08-01T17:22:18.930Z,2.70
2022-08-01T17:24:47.470Z,3.30
2022-08-01T17:27:16.285Z,2.70
2022-08-01T17:29:45.060Z,3.00
2022-08-01T17:32:14.370Z,2.50
2022-08-01T17:34:44.871Z,3.10
2022-08-01T17:37:13.558Z,3.50
2022-08-01T17:39:42.848Z,3.10
2022-08-01T17:42:14.139Z,3.50
2022-08-01T17:44:46.072Z,4.50
2022-08-01T17:47:40.877Z,3.50
2022-08-01T17:50:10.053Z,3.20
2022-08-01T17:52:39.300Z,2.90
2022-08-01T17:55:54.410Z,2.70
2022-08-01T17:58:04.165Z,3.00
2022-08-01T18:00:33.781Z,3.10
2022-08-01T18:03:02.660Z,3.40
2022-08-01T18:05:37.801Z,2.60
2022-08-01T18:08:06.782Z,3.00
2022-08-01T18:10:35.367Z,2.70
2022-08-01T18:13:12.919Z,2.80
2022-08-01T18:15:43.198Z,2.90
2022-08-01T18:18:13.541Z,2.60
2022-08-01T18:20:42.332Z,2.80
2022-08-01T18:23:11.368Z,2.50
2022-08-01T18:25:40.973Z,3.60
2022-08-01T18:28:22.736Z,2.90
2022-08-01T18:30:59.069Z,2.70
2022-08-01T18:33:27.936Z,3.70
2022-08-01T18:36:01.898Z,2.90
2022-08-01T18:38:37.383Z,3.20
2022-08-01T18:41:13.587Z,3.30
2022-08-01T18:43:42.023Z,2.80
2022-08-01T18:46:10.417Z,2.90
2022-08-01T18:48:39.107Z,2.90
2022-08-01T18:51:08.482Z,3.90
2022-08-01T18:53:39.170Z,3.70
2022-08-01T18:56:11.689Z,4.00
2022-08-01T18:58:43.520Z,4.00
2022-08-01T19:01:13.457Z,3.70
2022-08-01T19:03:42.924Z,4.10
2022-08-01T19:06:11.875Z,3.00
2022-08-01T19:08:41.012Z,3.30
2022-08-01T19:11:09.576Z,3.70
2022-08-01T19:13:38.350Z,4.30
2022-08-01T19:16:07.103Z,7.80
2022-08-01T19:18:36.139Z,6.50
2022-08-01T19:21:06.401Z,4.20
2022-08-01T19:23:53.882Z,3.50
2022-08-01T19:26:25.741Z,3.70
2022-08-01T19:28:57.834Z,3.70
2022-08-01T19:31:34.107Z,3.80
2022-08-01T19:34:05.997Z,3.70
2022-08-01T19:36:37.758Z,3.80
2022-08-01T19:39:09.666Z,3.90
2022-08-01T19:41:40.234Z,4.10
2022-08-01T19:44:13.019Z,3.80
2022-08-01T19:46:44.466Z,3.70
2022-08-01T19:49:15.377Z,3.60
2022-08-01T19:51:49.080Z,3.80
2022-08-01T19:54:20.267Z,21.20
2022-08-01T19:56:50.840Z,21.70
2022-08-01T19:59:25.109Z,10.80
2022-08-01T20:01:54.547Z,7.20
2022-08-01T20:04:24.289Z,7.50
2022-08-01T20:06:54.351Z,13.70
2022-08-01T20:09:24.072Z,8.30
2022-08-01T20:11:55.029Z,6.70
2022-08-01T20:14:25.691Z,6.00
2022-08-01T20:17:08.187Z,5.00
2022-08-01T20:19:45.234Z,4.60
2022-08-01T20:22:14.998Z,4.10
2022-08-01T20:24:45.520Z,3.70
2022-08-01T20:27:15.513Z,3.20
2022-08-01T20:29:45.861Z,5.60
2022-08-01T20:32:25.937Z,5.10
2022-08-01T20:34:55.265Z,5.20
2022-08-01T20:38:06.283Z,4.00
2022-08-01T20:40:14.519Z,4.10
2022-08-01T20:42:44.516Z,3.90
2022-08-01T20:45:18.372Z,3.80
2022-08-01T20:47:53.981Z,4.20
2022-08-01T20:50:52.946Z,3.80
2022-08-01T20:53:23.124Z,4.10
2022-08-01T20:55:59.857Z,5.20
2022-08-01T20:58:36.989Z,7.60
2022-08-01T21:01:09.587Z,6.30
2022-08-01T21:03:46.483Z,4.50
2022-08-01T21:06:22.033Z,4.20
2022-08-01T21:08:53.464Z,4.00
2022-08-01T21:11:25.188Z,4.20
2022-08-01T21:13:56.021Z,3.60
2022-08-01T21:16:32.078Z,4.30
2022-08-01T21:19:23.860Z,3.50
2022-08-01T21:22:10.383Z,3.10
2022-08-01T21:24:46.526Z,3.40
2022-08-01T21:27:33.381Z,3.20
2022-08-01T21:32:35.304Z,3.70
2022-08-01T21:35:15.968Z,3.40
2022-08-01T21:37:52.323Z,3.60
2022-08-01T21:40:24.555Z,3.30
2022-08-01T21:42:55.064Z,3.40
2022-08-01T21:45:26.685Z,3.90
2022-08-01T21:47:56.606Z,4.00
2022-08-01T21:50:26.741Z,5.20
2022-08-01T21:53:11.573Z,4.90
2022-08-01T21:55:59.725Z,4.00
2022-08-01T21:58:35.013Z,4.30
2022-08-01T22:01:51.393Z,4.60
2022-08-01T22:04:34.334Z,3.60
2022-08-01T22:07:05.948Z,3.50
2022-08-01T22:09:37.288Z,4.10
2022-08-01T22:12:08.031Z,3.70
2022-08-01T22:14:42.822Z,3.50
2022-08-01T22:17:17.369Z,4.10
2022-08-01T22:19:49.610Z,3.90
2022-08-01T22:22:32.329Z,3.80
2022-08-01T22:25:12.913Z,3.40
2022-08-01T22:28:07.818Z,4.10
2022-08-01T22:30:32.078Z,3.80
2022-08-01T22:33:07.304Z,3.50
2022-08-01T22:35:46.848Z,3.50
2022-08-01T22:38:17.948Z,4.10
2022-08-01T22:40:50.405Z,3.80
2022-08-01T22:43:38.682Z,3.50
2022-08-01T22:46:22.203Z,4.10
2022-08-01T22:48:56.696Z,3.60
2022-08-01T22:51:44.134Z,3.30
2022-08-01T22:54:29.980Z,3.90
2022-08-01T22:57:07.306Z,3.80
2022-08-01T22:59:49.089Z,3.90
2022-08-01T23:02:19.314Z,3.80
2022-08-01T23:04:50.101Z,3.70
2022-08-01T23:07:23.620Z,3.20
2022-08-01T23:09:55.256Z,4.10
2022-08-01T23:12:30.687Z,3.60
2022-08-01T23:15:00.861Z,3.70
2022-08-01T23:17:31.431Z,3.80
2022-08-01T23:20:02.270Z,4.10
2022-08-01T23:22:34.613Z,3.70
2022-08-01T23:25:06.565Z,3.70
2022-08-01T23:27:57.857Z,3.90
2022-08-01T23:30:30.035Z,3.70
2022-08-01T23:32:59.306Z,3.70
2022-08-01T23:35:36.898Z,4.10
2022-08-01T23:38:09.616Z,4.40
2022-08-01T23:40:39.473Z,5.00
2022-08-01T23:43:08.310Z,4.20
2022-08-01T23:46:02.252Z,3.90
2022-08-01T23:48:34.366Z,4.90
2022-08-01T23:51:03.574Z,4.00
2022-08-01T23:53:33.392Z,4.50
2022-08-01T23:56:04.531Z,4.20
2022-08-01T23:58:34.306Z,4.20
